Station info - map view · info · telemetry · weather · raw · status · beacons · messages · bulletins · browse · moving · my account
Callsign, ship name or locator: Clear       
It is possible to search using wildcards (*?) after a prefix. Example: OH*
APRS station KE5NLK-9 - show graphs
Map loading...
Mic-E message: In service
Location: 37°11.56' N 113°23.48' W - locator DM37HE36AF - show map - static map
5.7 miles West bearing 282° from Hurricane, Washington County, Utah, United States [?]
6.7 miles West bearing 265° from LaVerkin, Washington County, Utah, United States
12.2 miles Northeast bearing 60° from Saint George, Washington County, Utah, United States
38.0 miles Southwest bearing 208° from Cedar City, Iron County, Utah, United States
Last position: 2017-06-27 22:55:50 EDT (1d 11h24m ago)
2017-06-27 20:55:50 MDT local time at Hurricane, United States [?]
Altitude: 2982 ft
Course: 10°
Speed: 43 MPH
Device: Kenwood: TM-D710 (rig)
Last path: KE5NLK-9>S7QQUV via REDKNL*,KD7DR-10*,WIDE2,qAR,K7YI-4 (good)
Positions stored: 382
Other SSIDs: KE5NLK
Stations near current position of KE5NLK-9 - show more
callsign distance last heard - EDT      callsign distance last heard - EDT
WA7LNW-i4.5 miles 239°2017-06-27 14:13:00 EW79637.8 miles 251°2017-06-29 10:06:41
W9XXX8.7 miles 234°2017-06-28 21:31:17 IRLP-31739.4 miles 241°2017-06-29 09:51:53
IRLP-33329.4 miles 241°2017-06-29 09:40:22 K6IB-29.4 miles 241°2017-06-29 10:08:36
KF7YIX AD10.1 miles 72°2017-06-29 10:04:48 KF7YIX B10.1 miles 72°2017-06-29 10:04:48
KF7YIX C10.1 miles 72°2017-06-29 10:04:49 KF7YIX-B10.1 miles 72°2017-06-29 10:04:34
KF7YIX-C10.1 miles 72°2017-06-29 10:04:34 EW904910.4 miles 237°2017-06-29 10:12:52
EW402311.5 miles 233°2017-06-29 10:20:05 DW719712.5 miles 236°2017-06-29 10:12:33
KSGU13.7 miles 237°2017-06-28 14:07:06 KD7RGC14.7 miles 254°2017-06-17 23:48:49
St.Geoge17.4 miles 225°2017-06-29 09:33:16 KD7RGC-520.9 miles 322°2017-06-17 19:19:37
AA6I22.1 miles 89°2017-06-29 10:06:24 KAZC27.3 miles 128°2017-06-25 02:18:50
Stations which heard KE5NLK-9 directly on radio –
callsign pkts first heard - EDT last heard longest (tx => rx) longest at - EDT
RAVEN 3 2017-06-24 09:14:38 2017-06-24 10:20:17 DM75BA > DM64TX 25.7 miles 267° 2017-06-24 09:14:38
SANDIA 30 2017-06-24 08:53:39 2017-06-24 11:09:32 DM65HA > DM65SF 51.7 miles 76° 2017-06-24 11:09:32
PORTER 5 2017-06-24 13:27:17 2017-06-24 13:47:18 DM55EC > DM54AE 63.9 miles 195° 2017-06-24 13:27:17
CAPTAN 19 2017-06-24 06:38:41 2017-06-24 07:50:15 DM84FK > DM73HO 118.6 miles 242° 2017-06-24 06:38:41
DEZA 14 2017-06-24 11:59:05 2017-06-24 12:54:15 DM55VJ > DM55OV 48.4 miles 317° 2017-06-24 11:59:05
K5FTW-5 1 2017-06-24 00:11:33 2017-06-24 00:11:33 EM12DR > EM12IR 24.4 miles 95° 2017-06-24 00:11:33
LAMOSC 20 2017-06-24 10:52:27 2017-06-24 12:32:25 DM55QM > DM65EG 60.1 miles 108° 2017-06-24 12:32:25
CAPILA 7 2017-06-24 08:51:46 2017-06-24 11:13:28 DM65HA > DM64TQ 61.3 miles 111° 2017-06-24 11:13:28
TESQUE 15 2017-06-24 08:02:56 2017-06-24 10:10:44 DM74QV > DM75CS 89.7 miles 313° 2017-06-24 08:02:56
TAPIA 2 2017-06-24 09:03:57 2017-06-24 10:07:53 DM65VB > DM75EC 32.0 miles 86° 2017-06-24 10:07:53
ELKMTN 16 2017-06-24 07:37:06 2017-06-24 08:47:46 DM74UO > DM75FS 107.8 miles 318° 2017-06-24 07:37:06
W7MOT-8 24 2017-06-24 14:38:47 2017-06-25 14:42:23 DM46HE > DM45EF 67.1 miles 190° 2017-06-25 14:42:23
WOLFCK 1 2017-06-24 12:11:35 2017-06-24 12:11:35 DM55SL > DM67OL 165.9 miles 33° 2017-06-24 12:11:35
W5NGU-4 2 2017-06-24 00:07:32 2017-06-24 00:09:33 EM12ER > EM13HL 53.4 miles 15° 2017-06-24 00:07:32
K5MTS 1 2017-06-24 10:18:33 2017-06-24 10:18:33 DM65TC > DM65TA 7.6 miles 185° 2017-06-24 10:18:33
KM5VY-10 1 2017-06-24 09:12:37 2017-06-24 09:12:37 DM75BA > DM64UX 26.1 miles 265° 2017-06-24 09:12:37
PARRTT 2 2017-06-24 12:03:04 2017-06-24 12:26:24 DM55UJ > DM57WI 136.0 miles 4° 2017-06-24 12:03:04
WD5GIC-3 5 2017-06-24 00:15:33 2017-06-24 00:52:20 EM02RL > EM12CJ 42.7 miles 98° 2017-06-24 00:52:20
KS5S 10 2017-06-20 18:10:24 2017-06-24 00:05:31 EM12ER > EM12HK 26.1 miles 144° 2017-06-24 00:05:31
KG5IE-2 1 2017-06-24 00:30:53 2017-06-24 00:30:53 EM12CR > EM12CQ 3.1 miles 212° 2017-06-24 00:30:53
WD5DDH-1 11 2017-06-20 18:07:36 2017-06-23 23:26:58 EM12JF > EM12MM 22.7 miles 32° 2017-06-20 19:40:03
KD7DR-10 42 2017-06-25 13:25:38 2017-06-25 16:55:12 DM45FJ > DM47NA 120.8 miles 19° 2017-06-25 13:25:38
KG5BQX-10 1 2017-06-24 04:15:40 2017-06-24 04:15:40 DM93CO > DM93AK 12.9 miles 219° 2017-06-24 04:15:40
KK5MV-2 12 2017-06-24 01:24:44 2017-06-24 02:38:36 DM92SK > EM02FJ 54.9 miles 92° 2017-06-24 02:38:36
KK5MV-3 13 2017-06-24 02:18:24 2017-06-24 03:05:28 DM92MR > DM92UK 42.7 miles 120° 2017-06-24 03:05:28
KANAB 1 2017-06-25 16:42:45 2017-06-25 16:42:45 DM36SW > DM36RX 4.6 miles 335° 2017-06-25 16:42:45
KB5ASY-10 17 2017-06-23 23:10:59 2017-06-24 00:03:31 EM12IK > EM12HP 14.9 miles 331° 2017-06-23 23:10:59
KC5BG 2 2017-06-24 03:56:32 2017-06-24 04:00:56 DM93EJ > DM93EK 4.0 miles 321° 2017-06-24 03:56:32
KC5MVZ-2 17 2017-06-24 03:52:33 2017-06-24 04:32:31 DM93FI > DM93CM 20.6 miles 312° 2017-06-24 03:52:33
KD5YCY-5 24 2017-06-24 01:46:44 2017-06-24 02:28:53 DM92UL > EM02CG 35.1 miles 114° 2017-06-24 02:28:53
REDKNL 7 2017-06-25 16:21:27 2017-06-27 22:55:50 DM37HE > DM37QD 41.7 miles 93° 2017-06-27 22:55:50
K5RHD-10 6 2017-06-24 10:25:44 2017-06-24 10:37:53 DM65SB > DM65PC 15.7 miles 282° 2017-06-24 10:25:44
GALPK 2 2017-06-24 10:22:43 2017-06-24 11:05:09 DM64IX > DM74CF 98.7 miles 121° 2017-06-24 11:05:09
PINKS 5 2017-06-25 16:13:22 2017-06-25 16:34:13 DM36VR > DM37UJ 47.7 miles 354° 2017-06-25 16:13:22
ESTLND 28 2017-06-24 00:13:33 2017-06-24 01:28:46 EM12CR > EM02NL 64.2 miles 254° 2017-06-24 00:13:33
W5PDO-1 1 2017-06-24 10:11:15 2017-06-24 10:11:15 DM65VB > DM65UV 58.2 miles 353° 2017-06-24 10:11:15
GREENS 4 2017-06-24 10:46:23 2017-06-24 13:52:45 DM65NB > DM54FC 166.9 miles 248° 2017-06-24 10:46:23

Only position packets which were originated by the station are shown here. The range statistics show some extra long hops, because some digipeaters do not correctly add themselves to the digipeater path. Please check the raw packets.
About this site
This page shows real-time information collected from the Automatic Position Reporting System Internet network (APRS-IS). APRS is used by amateur (ham) radio operators to transmit real-time position information, weather data, telemetry and messages over the radio. A vehicle equipped with a GPS receiver, a VHF transmitter or HF transceiver and a small computer device called a tracker transmits it's location, speed and course in a small data packet, which is then received by a nearby iGate receiving site which forwards the packet on the Internet. Systems connected to the Internet can send information on the APRS-IS without a radio transmitter, or collect and display information transmitted anywhere in the world.
FAQ · Blog · Discussion group · Linking to aprs.fi · AIS sites · Service status · Database statistics · Advertising on aprs.fi · Technical details · API · Change log · Planned changes · Credits and thanks · Terms Of Service · iPhone/iPad APRS